Terminal Aerodrome Forecast
Issued by NWS Boise, ID

Home | Current Version | Previous Version | Text Only | Print | Product List | Glossary On
Versions: 1 2 3 4 5 6 7 8 9 10 11 12 13 14 15 16 17 18 19 20 21 22 23 24 25 26 27 28 29 30 31 32
682
FTUS45 KBOI 270635 CCA
TAFBOI
TAF COR
KBOI 270635Z 2707/2806 12006KT 6SM -SHRA BR SCT025 OVC040
      TEMPO 2707/2708 5SM SHRA BR OVC025
     FM271200 VRB03KT P6SM VCSH BKN040 OVC070
     FM271700 31015G22KT P6SM SCT040 BKN080
     FM280200 32012KT P6SM SCT120=

USA.gov is the U.S. government's official web portal to all federal, state and local government web resources and services.